Healthcare Realty Trust Inc (HR) Latest Bloomsberg Price


Mffais Ranking #2307 Overall / #88 Industry
Industry: Reit

Number of Companies: 187 (Ranking #890 Overall/#53 Industry)
Inflow: $ 75,664 (K) (Ranking #1109 Overall/#60 Industry)
Outflow: $ -126,675 (K)
Mffais Flow: $ -51,011 (K) (Ranking #2307 Overall/#88 Industry)


Receive a FREE weekly executive review of stocks moving into the top 10, taking the top industy spot or moving up within their industry. Sent directly to your Inbox every Saturday. Sign up today and get last week's review immediately sent to you.

We value and respect your privacy. Please read our Terms and Conditions which states our firm commitment to your privacy. Your email address will not be shared with a third party, nor will it be sold or used for purposes other than subscription for the weekly review.

Owner CPOR Shares Action Qty Chg Invested (K) Total Current Value (K)
Nuveen Asset Management Llc 2016-09-30 1,808,957 Added More 326,313 $ 11,642 $ 64,543
Northern Trust Corp 2016-09-30 3,146,511 Added More 244,787 $ 8,734 $ 112,267
Duff Phelps Investment Management Co 2016-09-30 1,230,111 Added More 229,511 $ 8,188 $ 43,890
Phocas Financial Corp 2016-09-30 154,755 New Holding 154,755 $ 5,521 $ 5,521
Sandler Capital Management 2016-09-30 268,990 Added More 128,990 $ 4,602 $ 9,597
Aberdeen Asset Management Plc Uk 2016-09-30 669,831 Added More 102,888 $ 3,671 $ 23,899
Pioneer Investment Management Inc 2016-09-30 641,693 Added More 85,735 $ 3,059 $ 22,895
Teachers Advisors Inc 2016-09-30 253,465 Added More 81,663 $ 2,913 $ 9,043
Gareth Morgan Investments Limited Partnership 2016-09-30 71,134 New Holding 71,134 $ 2,538 $ 2,538
Cornerstone Capital Management Holdings Llc 2016-09-30 116,973 Added More 56,871 $ 2,029 $ 4,173
Wbi Investments Inc 2016-09-30 54,113 New Holding 54,113 $ 1,930 $ 1,930
Chicago Equity Partners Llc 2016-09-30 45,690 New Holding 45,690 $ 1,630 $ 1,630
Legal General Group Plc 2016-09-30 306,831 Added More 43,154 $ 1,539 $ 10,947
Sumitomo Mitsui Asset Management Company Ltd 2016-09-30 203,499 Added More 40,492 $ 1,444 $ 7,260
Diam Co Ltd 2016-09-30 282,450 Added More 39,068 $ 1,393 $ 10,077
Blackrock Investment Management Llc 2016-09-30 745,311 Added More 37,158 $ 1,325 $ 26,592
Blackrock Inc 2016-09-30 193,030 Added More 25,799 $ 920 $ 6,887
Rhumbline Advisers 2016-09-30 247,698 Added More 23,926 $ 853 $ 8,837
California State Teachers Retirement System 2016-09-30 241,835 Added More 22,600 $ 806 $ 8,628
Kbc Group Nv 2016-09-30 48,391 Added More 22,062 $ 787 $ 1,726
Bridgeway Capital Management Inc 2016-09-30 89,700 Added More 20,000 $ 713 $ 3,200
Dimensional Fund Advisors Lp 2016-09-30 1,403,306 Added More 18,045 $ 643 $ 50,069
Rafferty Asset Management Llc 2016-09-30 17,675 New Holding 17,675 $ 630 $ 630
Strs Ohio 2016-09-30 207,899 Added More 16,015 $ 571 $ 7,417
Td Asset Management Inc 2016-09-30 13,300 New Holding 13,300 $ 474 $ 474
Sterling Global Strategies Llc 2016-09-30 12,602 New Holding 12,602 $ 449 $ 449
Gsa Capital Partners Llp 2016-09-30 11,166 New Holding 11,166 $ 398 $ 398
Swiss National Bank 2016-09-30 184,500 Added More 10,300 $ 367 $ 6,582
Teachers Insurance Annuity Association Of America 2016-09-30 121,992 Added More 10,125 $ 361 $ 4,352
Comerica Bank 2016-09-30 79,931 Added More 8,393 $ 299 $ 2,851
Mizuho Trust Banking Co Ltd 2016-09-30 28,509 Added More 8,280 $ 295 $ 1,017
Raymond James Associates 2016-09-30 14,348 Added More 8,272 $ 295 $ 511
Shelton Capital Management 2016-09-30 16,303 Added More 7,860 $ 280 $ 581
Liberty Mutual Group Asset Management Inc 2016-09-30 52,163 Added More 7,794 $ 278 $ 1,861
Nomura Asset Management Co Ltd 2016-09-30 82,470 Added More 7,620 $ 271 $ 2,942
World Asset Management Inc 2016-09-30 7,546 New Holding 7,546 $ 269 $ 269
Bayesian Capital Management Lp 2016-09-30 7,400 New Holding 7,400 $ 264 $ 264
Sumitomo Mitsui Trust Holdings Inc 2016-09-30 82,900 Added More 6,589 $ 235 $ 2,957
Keybank National Association Oh 2016-09-30 6,383 New Holding 6,383 $ 227 $ 227
Eqis Capital Management Inc 2016-09-30 6,095 New Holding 6,095 $ 217 $ 217
First Niagara Bank 2016-06-30 6,000 New Holding 6,000 $ 209 $ 209
Invictus Rg 2016-09-30 6,553 Added More 5,650 $ 201 $ 233
American International Group Inc 2016-09-30 280,512 Added More 5,621 $ 200 $ 10,008
Profund Advisors Llc 2016-09-30 24,556 Added More 5,060 $ 180 $ 876
Arizona State Retirement System 2016-09-30 51,500 Added More 4,800 $ 171 $ 1,837
Oregon Public Employees Retirement Fund 2016-09-30 38,847 Added More 4,383 $ 156 $ 1,386
Retirement Systems Of Alabama 2016-09-30 149,305 Added More 3,959 $ 141 $ 5,327
Hexavest Inc 2016-09-30 3,714 New Holding 3,714 $ 132 $ 132
Patten Patten Inc Tn 2016-09-30 32,945 Added More 3,700 $ 132 $ 1,175
State Of Alaska Department Of Revenue 2016-09-30 20,310 Added More 3,660 $ 130 $ 724
Thrivent Financial For Lutherans 2016-09-30 79,972 Added More 3,210 $ 114 $ 2,853
Mutual Of America Capital Management Llc 2016-09-30 89,452 Added More 2,764 $ 98 $ 3,191
Pacer Advisors Inc 2016-09-30 12,777 Added More 2,411 $ 86 $ 455
Raymond James Financial Services Advisors Inc 2016-09-30 8,379 Added More 2,205 $ 78 $ 298
Mason Street Advisors Llc 2016-09-30 53,608 Added More 2,173 $ 77 $ 1,912
Texas Permanent School Fund 2016-09-30 88,263 Added More 2,121 $ 75 $ 3,149
Mitsubishi Ufj Kokusai Asset Management Co Ltd 2016-09-30 18,859 Added More 1,984 $ 70 $ 672
New Mexico Educational Retirement Board 2016-09-30 16,363 Added More 1,800 $ 64 $ 583
Aperio Group Llc 2016-09-30 24,065 Added More 1,746 $ 62 $ 858
State Treasurer State Of Michigan 2016-09-30 46,600 Added More 1,300 $ 46 $ 1,662
Ls Investment Advisors Llc 2016-09-30 7,438 Added More 901 $ 32 $ 265
1st Global Advisors Inc 2016-09-30 7,386 Added More 578 $ 20 $ 263
Simplex Trading Llc 2016-09-30 501 New Holding 501 $ 17 $ 17
Zurcher Kantonalbank Zurich Cantonalbank 2016-09-30 6,405 Added More 478 $ 17 $ 228
Northwestern Mutual Investment Management Company Llc 2016-09-30 19,952 Added More 476 $ 16 $ 711
Point72 Asia Hong Kong Ltd 2016-09-30 400 New Holding 400 $ 14 $ 14
Capstone Asset Management Co 2016-09-30 9,796 Added More 300 $ 10 $ 349
Cim Investment Mangement Inc 2016-09-30 6,461 Added More 240 $ 8 $ 230
Blackrock Japan Co Ltd 2016-09-30 5,682 Added More 200 $ 7 $ 202
Creative Planning 2016-09-30 1,700 Added More 82 $ 2 $ 60
Washington Trust Bank 2016-09-30 66 New Holding 66 $ 2 $ 2
Ftb Advisors Inc 2016-09-30 794 Added More 55 $ 1 $ 28
Keeley Asset Management Corp 2016-09-30 33,838 Added More 35 $ 1 $ 1,207
Weaver C Barksdale Associates Inc 2016-09-30 59 Added More 5 $ 0 $ 2
Rational Advisors Llc 2016-09-30 5,100 No Change 0 $ 0 $ 181
Rmr Advisors Llc 2016-09-30 50,897 No Change 0 $ 0 $ 1,816
Whittier Trust Co 2016-09-30 925 No Change 0 $ 0 $ 33
Advisors Asset Management Inc 2016-09-30 2,700 No Change 0 $ 0 $ 96
Pensionfund Dsm Netherlands 2016-09-30 10,682 No Change 0 $ 0 $ 381
Inventrust Properties Corp 2016-09-30 143,500 No Change 0 $ 0 $ 5,120
Texas Yale Capital Corp 2016-09-30 15,410 No Change 0 $ 0 $ 549
Bennicas Associates Inc 2016-09-30 6,200 No Change 0 $ 0 $ 221
Msi Financial Services Inc 2016-09-30 685 No Change 0 $ 0 $ 24
Cubic Asset Management Llc 2016-09-30 9,700 No Change 0 $ 0 $ 346
Polar Capital Llp 2016-09-30 60,000 No Change 0 $ 0 $ 2,140
Bessemer Group Inc 2016-09-30 9,778 No Change 0 $ 0 $ 348
Spirit Of America Management Corp Ny 2016-09-30 5,000 No Change 0 $ 0 $ 178
Ing Groep Nv 2016-09-30 20,526 No Change 0 $ 0 $ 732
Charter Trust Co 2016-09-30 11,001 No Change 0 $ 0 $ 392
Pggm Investments 2016-09-30 2,773,000 No Change 0 $ 0 $ 98,940
Hemenway Trust Co Llc 2016-09-30 6,945 No Change 0 $ 0 $ 247
Qs Investors Llc 2016-09-30 10 No Change 0 $ 0 $ 0
Mizuho Asset Management Co Ltd 2016-09-30 41,290 No Change 0 $ 0 $ 1,473
Duncker Streett Co Inc 2016-09-30 1,400 No Change 0 $ 0 $ 49
Gilman Hill Asset Management Llc 2016-09-30 11,125 No Change 0 $ 0 $ 396
Hanson Mcclain Inc 2016-06-30 255 No Change 0 $ 0 $ 8
Thompson Siegel Walmsley Llc 2016-09-30 1,086 No Change 0 $ 0 $ 38
Segment Wealth Management Llc 2016-09-30 17,000 No Change 0 $ 0 $ 606
Nisa Investment Advisors Llc 2016-09-30 74,200 No Change 0 $ 0 $ 2,647
Oakworth Capital Inc 2016-09-30 200 No Change 0 $ 0 $ 7
Sanctuary Wealth Advisors Llc 2016-09-30 214 No Change 0 $ 0 $ 7
Capital Impact Advisors Llc 2016-09-30 30,937 No Change 0 $ 0 $ 1,103
Gemmer Asset Management Llc 2016-09-30 266 No Change 0 $ 0 $ 9
Chemical Bank 2016-09-30 8,000 No Change 0 $ 0 $ 285
Exane Derivatives 2016-09-30 1 No Change 0 $ 0 $ 0
Pensionfund Sabic 2016-09-30 4,082 No Change 0 $ 0 $ 145
Quadrant Capital Group Llc 2016-09-30 574 No Change 0 $ 0 $ 20
Panagora Asset Management Inc 2016-09-30 160 No Change 0 $ 0 $ 5
Cribstone Capital Management Llc 2016-09-30 600 No Change 0 $ 0 $ 21
James Investment Research Inc 2016-09-30 99 No Change 0 $ 0 $ 3
Honeywell International Inc 2016-09-30 73,868 No Change 0 $ 0 $ 2,635
Foresters Investment Management Company Inc 2016-09-30 1,780 No Change 0 $ 0 $ 63
Teachers Retirement System Of The State Of Kentucky 2016-09-30 24,300 No Change 0 $ 0 $ 867
New York State Teachers Retirement System 2016-09-30 95,794 No Change 0 $ 0 $ 3,417
Fifth Third Bancorp 2016-09-30 368 No Change 0 $ 0 $ 13
M T Bank Corp 2016-09-30 27,761 Sold Some -6 $ -0 $ 990
Advantus Capital Management Inc 2016-09-30 14,101 Sold Some -40 $ -1 $ 503
Carroll Financial Associates Inc 2016-09-30 364 Sold Some -42 $ -1 $ 12
Northwestern Mutual Wealth Management Co 2016-09-30 23,961 Sold Some -76 $ -2 $ 854
Vigilant Capital Management Llc 2016-09-30 0 Sold All -88 $ -3 $ 0
Acrospire Investment Management Llc 2016-09-30 0 Sold All -100 $ -3 $ 0
Delta Asset Management Llc Tn 2016-09-30 13,153 Sold Some -195 $ -6 $ 469
Catawba Capital Management Va 2016-09-30 8,105 Sold Some -200 $ -7 $ 289
Mufg Americas Holdings Corp 2016-09-30 0 Sold All -257 $ -9 $ 0
Ifp Advisors Inc 2016-09-30 407 Sold Some -397 $ -14 $ 14
Envestnet Asset Management Inc 2016-09-30 8,157 Sold Some -536 $ -19 $ 291
Stifel Financial Corp 2016-09-30 9,048 Sold Some -812 $ -28 $ 322
Gateway Investment Advisers Llc 2016-09-30 365,507 Sold Some -848 $ -30 $ 13,041
Ladenburg Thalmann Financial Services Inc 2016-09-30 10,482 Sold Some -973 $ -34 $ 373
United Capital Financial Advisers Llc 2016-09-30 6,930 Sold Some -998 $ -35 $ 247
Amica Retiree Medical Trust 2016-09-30 0 Sold All -1,000 $ -35 $ 0
Us Bancorp De 2016-09-30 33,333 Sold Some -1,167 $ -41 $ 1,189
Fiduciary Financial Services Of The Southwest Inc Tx 2016-09-30 44,626 Sold Some -1,232 $ -43 $ 1,592
Westbourne Investment Advisors Inc 2016-09-30 6,375 Sold Some -1,300 $ -46 $ 227
Checchi Capital Advisers Llc 2016-09-30 0 Sold All -1,510 $ -53 $ 0
Davenport Co Llc 2016-09-30 27,073 Sold Some -1,524 $ -54 $ 965
Veritable L P 2016-09-30 11,225 Sold Some -1,548 $ -55 $ 400
Advisor Group Inc 2016-09-30 1,701 Sold Some -1,747 $ -62 $ 60
Teacher Retirement System Of Texas 2016-09-30 12,330 Sold Some -2,062 $ -73 $ 439
Marble Harbor Investment Counsel Llc 2016-09-30 373,754 Sold Some -2,100 $ -74 $ 13,335
Proshare Advisors Llc 2016-09-30 46,333 Sold Some -2,335 $ -83 $ 1,653
Tower Research Capital Llc Trc 2016-09-30 5,179 Sold Some -2,470 $ -88 $ 184
Sonora Investment Management Llc 2016-09-30 22,430 Sold Some -2,550 $ -90 $ 800
Kempen Capital Management N V 2016-09-30 34,878 Sold Some -3,021 $ -107 $ 1,244
Amp Capital Investors Ltd 2016-09-30 37,449 Sold Some -4,000 $ -142 $ 1,336
Hsbc Holdings Plc 2016-09-30 12,466 Sold Some -5,128 $ -182 $ 444
Strategic Investment Management Llc 2016-09-30 0 Sold All -5,829 $ -207 $ 0
Amica Pension Fund Board Of Trustees 2016-09-30 0 Sold All -6,300 $ -224 $ 0
Nationwide Fund Advisors 2016-09-30 286,348 Sold Some -6,348 $ -226 $ 10,216
Bb T Securities Llc 2016-09-30 0 Sold All -6,498 $ -231 $ 0
Hancock Holding Co 2016-09-30 0 Sold All -6,859 $ -244 $ 0
Verition Fund Management Llc 2016-09-30 0 Sold All -7,861 $ -280 $ 0
Amica Mutual Insurance Co 2016-09-30 0 Sold All -8,300 $ -296 $ 0
Quantbot Technologies Lp 2016-09-30 0 Sold All -8,493 $ -303 $ 0
Pnc Financial Services Group Inc 2016-09-30 7,274 Sold Some -9,594 $ -342 $ 259
Barings Llc 2016-09-30 0 Sold All -9,900 $ -353 $ 0
Capital Investment Advisors Llc 2016-09-30 68,226 Sold Some -10,706 $ -381 $ 2,434
Cutler Group Lp 2016-09-30 14,752 Sold Some -11,548 $ -412 $ 526
Sanders Morris Harris Inc 2016-09-30 0 Sold All -13,025 $ -464 $ 0
Cubist Systematic Strategies Llc 2016-09-30 5,722 Sold Some -15,784 $ -563 $ 204
Kcg Holdings Inc 2016-09-30 0 Sold All -16,205 $ -578 $ 0
Peak6 Investments L P 2016-09-30 35,962 Sold Some -18,238 $ -650 $ 1,283
Dupont Capital Management Corp 2016-09-30 0 Sold All -25,589 $ -913 $ 0
Putnam Investments Llc 2016-09-30 0 Sold All -25,652 $ -915 $ 0
Sg Americas Securities Llc 2016-09-30 37,319 Sold Some -29,402 $ -1,049 $ 1,331
Sei Investments Co 2016-09-30 98,071 Sold Some -31,226 $ -1,114 $ 3,499
Guggenheim Capital Llc 2016-09-30 166,680 Sold Some -32,271 $ -1,151 $ 5,947
Highbridge Capital Management Llc 2016-09-30 0 Sold All -40,000 $ -1,427 $ 0
Parametric Portfolio Associates Llc 2016-09-30 79,823 Sold Some -42,411 $ -1,513 $ 2,848
Chartwell Investment Partners Llc 2016-09-30 599,523 Sold Some -42,855 $ -1,529 $ 21,390
New York State Common Retirement Fund 2016-09-30 152,159 Sold Some -46,906 $ -1,673 $ 5,429
Henderson Group Plc 2016-09-30 0 Sold All -50,000 $ -1,784 $ 0
Jane Street Group Llc 2016-09-30 34,599 Sold Some -58,335 $ -2,081 $ 1,234
Investment Counselors Of Maryland Llc 2016-09-30 429,528 Sold Some -63,305 $ -2,258 $ 15,325
Denali Advisors Llc 2016-09-30 0 Sold All -77,300 $ -2,758 $ 0
Cedar Capital Llc 2016-09-30 0 Sold All -81,182 $ -2,896 $ 0
Monashee Investment Management Llc 2016-09-30 0 Sold All -100,000 $ -3,568 $ 0
Capital Fund Management S A 2016-09-30 0 Sold All -105,115 $ -3,750 $ 0
Driehaus Capital Management Llc 2016-09-30 0 Sold All -160,013 $ -5,709 $ 0
Employees Retirement System Of Texas 2016-09-30 391,000 Sold Some -171,000 $ -6,101 $ 13,950
Shinko Asset Management Co Ltd 2016-09-30 4,509,317 Sold Some -213,908 $ -7,632 $ 160,892
Chilton Capital Management Llc 2016-09-30 0 Sold All -222,598 $ -7,942 $ 0
Tudor Investment Corp Et Al 2016-09-30 0 Sold All -265,687 $ -9,479 $ 0
Heitman Real Estate Securities Llc 2016-09-30 537,440 Sold Some -278,180 $ -9,925 $ 19,175
Cbre Clarion Securities Llc 2016-09-30 5,853,096 Sold Some -352,677 $ -12,583 $ 208,838
Emerald Acquisition Ltd 2016-09-30 654,123 Sold Some -379,769 $ -13,550 $ 23,339
Channing Capital Management Llc 2016-09-30 1,107,641 Sold Some -453,199 $ -16,170 $ 39,520